createdAt,value
2022-12-11T00:02:04.956Z,3.63
2022-12-11T00:07:07.836Z,3.42
2022-12-11T00:12:10.291Z,2.58
2022-12-11T00:17:12.719Z,3.17
2022-12-11T00:22:15.550Z,3.65
2022-12-11T00:27:18.029Z,3.67
2022-12-11T00:32:20.712Z,2.90
2022-12-11T00:37:23.151Z,2.20
2022-12-11T00:42:25.594Z,1.70
2022-12-11T00:47:28.004Z,1.60
2022-12-11T00:52:30.518Z,1.33
2022-12-11T00:57:33.054Z,1.70
2022-12-11T01:02:35.933Z,1.30
2022-12-11T01:07:38.379Z,1.10
2022-12-11T01:12:40.816Z,1.58
2022-12-11T01:17:43.311Z,1.45
2022-12-11T01:22:45.775Z,1.02
2022-12-11T01:27:52.024Z,1.38
2022-12-11T01:32:54.487Z,1.42
2022-12-11T01:37:57.013Z,0.73
2022-12-11T01:42:59.520Z,1.35
2022-12-11T01:48:08.695Z,1.08
2022-12-11T01:53:15.859Z,1.00
2022-12-11T01:58:19.863Z,1.33
2022-12-11T02:03:22.841Z,1.63
2022-12-11T02:08:25.298Z,1.55
2022-12-11T02:13:48.760Z,1.63
2022-12-11T02:19:01.673Z,1.45
2022-12-11T02:24:30.886Z,1.13
2022-12-11T02:29:39.978Z,1.38
2022-12-11T02:34:47.092Z,0.90
2022-12-11T02:39:52.591Z,1.80
2022-12-11T02:44:57.579Z,1.75
2022-12-11T02:50:02.797Z,1.23
2022-12-11T02:55:08.103Z,1.27
2022-12-11T03:00:11.887Z,1.40
2022-12-11T03:05:15.898Z,1.13
2022-12-11T03:10:20.296Z,1.33
2022-12-11T03:15:32.560Z,1.20
2022-12-11T03:21:10.093Z,1.33
2022-12-11T03:26:16.768Z,1.33
2022-12-11T03:31:32.258Z,1.33
2022-12-11T03:36:38.329Z,1.20
2022-12-11T03:41:43.087Z,1.70
2022-12-11T03:46:47.183Z,1.73
2022-12-11T03:51:52.640Z,1.70
2022-12-11T03:56:57.943Z,1.83
2022-12-11T04:02:00.412Z,1.45
2022-12-11T04:07:02.860Z,1.42
2022-12-11T04:12:05.536Z,2.25
2022-12-11T04:17:08.032Z,0.98
2022-12-11T04:22:34.186Z,1.00
2022-12-11T04:27:51.754Z,1.15
2022-12-11T04:32:55.207Z,1.70
2022-12-11T04:37:57.743Z,1.48
2022-12-11T04:43:00.816Z,1.17
2022-12-11T04:48:03.320Z,1.90
2022-12-11T04:53:05.735Z,2.03
2022-12-11T04:58:08.196Z,1.75
2022-12-11T05:03:10.987Z,1.48
2022-12-11T05:08:13.526Z,1.48
2022-12-11T05:13:16.094Z,1.20
2022-12-11T05:18:18.893Z,1.88
2022-12-11T05:23:21.277Z,1.48
2022-12-11T05:28:25.314Z,1.20
2022-12-11T05:33:28.441Z,1.50
2022-12-11T05:38:31.315Z,0.98
2022-12-11T05:43:36.828Z,1.38
2022-12-11T05:48:39.472Z,1.42
2022-12-11T05:53:43.371Z,1.60
2022-12-11T05:58:48.433Z,1.88
2022-12-11T06:03:51.171Z,1.10
2022-12-11T06:08:54.889Z,1.52
2022-12-11T06:13:57.688Z,1.58
2022-12-11T06:19:00.128Z,1.40
2022-12-11T06:24:04.224Z,1.05
2022-12-11T06:29:11.020Z,1.70
2022-12-11T06:34:15.244Z,2.05
2022-12-11T06:39:17.673Z,1.40
2022-12-11T06:44:20.095Z,1.95
2022-12-11T06:49:22.726Z,2.40
2022-12-11T06:54:29.010Z,1.75
2022-12-11T06:59:31.570Z,1.75
2022-12-11T07:04:35.053Z,2.55
2022-12-11T07:09:39.915Z,2.15
2022-12-11T07:14:42.354Z,2.28
2022-12-11T07:19:44.915Z,1.60
2022-12-11T07:24:47.302Z,1.77
2022-12-11T07:29:51.355Z,3.38
2022-12-11T07:34:53.811Z,1.80
2022-12-11T07:39:56.256Z,1.80
2022-12-11T07:44:58.720Z,2.70
2022-12-11T07:50:01.159Z,2.58
2022-12-11T07:55:05.990Z,2.28
2022-12-11T08:00:09.148Z,2.47
2022-12-11T08:05:20.292Z,2.20
2022-12-11T08:10:23.337Z,2.30
2022-12-11T08:15:25.914Z,2.67
2022-12-11T08:20:28.750Z,2.28
2022-12-11T08:25:31.763Z,2.92
2022-12-11T08:30:34.226Z,2.53
2022-12-11T08:35:40.226Z,2.58
2022-12-11T08:40:43.130Z,2.72
2022-12-11T08:45:47.052Z,3.08
2022-12-11T08:50:49.664Z,2.00
2022-12-11T08:55:52.183Z,3.58
2022-12-11T09:00:55.080Z,2.15
2022-12-11T09:05:57.598Z,1.95
2022-12-11T09:11:05.550Z,3.33
2022-12-11T09:16:11.066Z,3.33
2022-12-11T09:21:16.359Z,2.88
2022-12-11T09:26:19.442Z,2.67
2022-12-11T09:31:25.941Z,2.88
2022-12-11T09:36:29.082Z,3.55
2022-12-11T09:41:40.799Z,3.70
2022-12-11T09:46:44.604Z,3.17
2022-12-11T09:51:56.829Z,3.40
2022-12-11T09:57:44.117Z,3.25
2022-12-11T10:02:59.324Z,3.25
2022-12-11T10:08:10.631Z,3.00
2022-12-11T10:13:22.605Z,3.33
2022-12-11T10:18:28.373Z,3.58
2022-12-11T10:23:57.219Z,3.10
2022-12-11T10:29:01.454Z,2.38
2022-12-11T10:34:15.629Z,3.75
2022-12-11T10:39:23.232Z,3.00
2022-12-11T10:44:28.779Z,3.45
2022-12-11T10:49:34.878Z,3.63
2022-12-11T10:54:42.820Z,3.30
2022-12-11T10:59:50.627Z,3.63
2022-12-11T11:04:56.204Z,2.85
2022-12-11T11:10:11.070Z,3.78
2022-12-11T11:15:16.828Z,3.05
2022-12-11T11:20:22.704Z,2.92
2022-12-11T11:25:27.904Z,2.80
2022-12-11T11:30:36.773Z,3.38
2022-12-11T11:35:45.507Z,3.42
2022-12-11T11:41:14.719Z,3.58
2022-12-11T11:46:43.504Z,3.38
2022-12-11T11:51:54.604Z,2.90
2022-12-11T11:56:59.402Z,3.72
2022-12-11T12:02:02.070Z,3.13
2022-12-11T12:07:29.063Z,3.63
2022-12-11T12:12:55.521Z,4.13
2022-12-11T12:18:12.823Z,3.83
2022-12-11T12:23:56.351Z,3.38
2022-12-11T12:29:13.184Z,3.25
2022-12-11T12:34:40.127Z,3.63
2022-12-11T12:40:03.916Z,3.30
2022-12-11T12:45:26.207Z,3.42
2022-12-11T12:50:44.256Z,2.70
2022-12-11T12:55:48.853Z,3.00
2022-12-11T13:00:51.504Z,3.13
2022-12-11T13:06:02.250Z,3.85
2022-12-11T13:11:08.945Z,4.07
2022-12-11T13:16:17.283Z,3.88
2022-12-11T13:21:34.986Z,4.38
2022-12-11T13:26:37.457Z,4.65
2022-12-11T13:31:44.231Z,4.57
2022-12-11T13:36:50.067Z,4.43
2022-12-11T13:41:57.450Z,3.90
2022-12-11T13:52:05.010Z,4.45
2022-12-11T13:57:07.395Z,5.82
2022-12-11T14:02:34.509Z,4.38
2022-12-11T14:07:44.670Z,5.10
2022-12-11T14:13:11.267Z,4.68
2022-12-11T14:18:20.230Z,5.10
2022-12-11T14:23:26.400Z,3.42
2022-12-11T14:28:36.164Z,4.30
2022-12-11T14:33:44.044Z,3.58
2022-12-11T14:39:01.320Z,3.45
2022-12-11T14:44:08.344Z,2.38
2022-12-11T14:49:19.470Z,3.60
2022-12-11T14:54:34.099Z,4.90
2022-12-11T14:59:45.194Z,4.00
2022-12-11T15:05:01.116Z,5.22
2022-12-11T15:10:04.769Z,4.50
2022-12-11T15:15:15.249Z,3.38
2022-12-11T15:20:28.796Z,3.42
2022-12-11T15:30:35.580Z,1.92
2022-12-11T15:35:40.234Z,3.60
2022-12-11T15:40:42.695Z,3.95
2022-12-11T15:45:45.376Z,2.25
2022-12-11T15:50:47.999Z,3.20
2022-12-11T15:55:51.237Z,2.20
2022-12-11T16:00:54.370Z,3.33
2022-12-11T16:05:56.821Z,2.20
2022-12-11T16:10:59.346Z,2.58
2022-12-11T16:16:02.977Z,2.97
2022-12-11T16:21:06.673Z,2.58
2022-12-11T16:26:09.979Z,2.78
2022-12-11T16:31:13.845Z,1.98
2022-12-11T16:36:18.512Z,1.95
2022-12-11T16:41:21.398Z,2.40
2022-12-11T16:46:24.611Z,2.08
2022-12-11T16:51:27.102Z,2.90
2022-12-11T16:56:29.695Z,2.10
2022-12-11T17:01:34.920Z,1.08
2022-12-11T17:06:37.462Z,1.90
2022-12-11T17:11:39.938Z,2.20
2022-12-11T17:16:42.459Z,1.73
2022-12-11T17:21:51.538Z,1.60
2022-12-11T17:26:55.721Z,1.30
2022-12-11T17:31:59.881Z,1.30
2022-12-11T17:37:02.256Z,1.42
2022-12-11T17:42:04.854Z,1.33
2022-12-11T17:47:11.248Z,1.42
2022-12-11T17:52:13.973Z,1.73
2022-12-11T17:57:19.009Z,1.65
2022-12-11T18:02:22.300Z,1.55
2022-12-11T18:07:25.587Z,1.10
2022-12-11T18:12:28.103Z,1.08
2022-12-11T18:17:30.683Z,0.93
2022-12-11T18:22:33.225Z,1.20
2022-12-11T18:27:35.943Z,0.90
2022-12-11T18:32:38.444Z,0.77
2022-12-11T18:37:41.553Z,1.15
2022-12-11T18:42:44.100Z,0.75
2022-12-11T18:47:47.560Z,1.02
2022-12-11T18:52:54.593Z,0.75
2022-12-11T18:57:57.163Z,0.82
2022-12-11T19:02:59.621Z,1.23
2022-12-11T19:08:03.007Z,1.02
2022-12-11T19:13:05.515Z,1.00
2022-12-11T19:18:08.682Z,0.85
2022-12-11T19:23:11.491Z,1.10
2022-12-11T19:28:14.945Z,0.90
2022-12-11T19:33:17.477Z,0.85
2022-12-11T19:38:19.968Z,1.05
2022-12-11T19:43:22.700Z,0.88
2022-12-11T19:48:25.533Z,0.75
2022-12-11T19:53:28.104Z,0.57
2022-12-11T19:58:30.771Z,0.55
2022-12-11T20:03:34.148Z,0.43
2022-12-11T20:08:45.638Z,0.77
2022-12-11T20:13:49.302Z,0.63
2022-12-11T20:18:52.244Z,1.00
2022-12-11T20:23:54.733Z,0.90
2022-12-11T20:28:57.244Z,0.60
2022-12-11T20:34:00.109Z,0.65
2022-12-11T20:39:02.650Z,1.40
2022-12-11T20:44:05.191Z,0.55
2022-12-11T20:49:13.195Z,0.60
2022-12-11T20:54:15.970Z,0.60
2022-12-11T20:59:19.115Z,0.55
2022-12-11T21:04:21.822Z,0.43
2022-12-11T21:09:26.525Z,0.60
2022-12-11T21:14:30.738Z,0.63
2022-12-11T21:19:33.338Z,0.43
2022-12-11T21:24:35.843Z,0.40
2022-12-11T21:29:38.356Z,0.50
2022-12-11T21:34:40.792Z,0.60
2022-12-11T21:39:43.260Z,0.40
2022-12-11T21:50:08.452Z,0.45
2022-12-11T21:55:13.188Z,0.55
2022-12-11T22:00:16.323Z,0.30
2022-12-11T22:05:18.732Z,0.55
2022-12-11T22:10:21.148Z,0.73
2022-12-11T22:15:23.753Z,0.50
2022-12-11T22:20:27.855Z,0.55
2022-12-11T22:25:30.349Z,0.90
2022-12-11T22:30:32.863Z,0.43
2022-12-11T22:35:35.709Z,0.80
2022-12-11T22:40:41.827Z,0.75
2022-12-11T22:45:44.537Z,0.70
2022-12-11T22:50:47.011Z,0.80
2022-12-11T22:55:49.478Z,0.90
2022-12-11T23:00:51.896Z,0.73
2022-12-11T23:05:54.418Z,0.50
2022-12-11T23:10:57.102Z,0.40
2022-12-11T23:15:59.531Z,0.57
2022-12-11T23:21:02.749Z,0.52
2022-12-11T23:26:06.029Z,0.50
2022-12-11T23:31:09.261Z,0.77
2022-12-11T23:36:13.349Z,0.65
2022-12-11T23:41:15.873Z,0.88
2022-12-11T23:46:21.827Z,0.52
2022-12-11T23:51:26.313Z,1.05
2022-12-11T23:56:30.073Z,0.70
